createdAt,value
2024-03-13T00:00:09.669Z,4.10
2024-03-13T00:01:09.671Z,4.12
2024-03-13T00:02:09.840Z,4.15
2024-03-13T00:03:09.612Z,4.15
2024-03-13T00:04:09.666Z,4.15
2024-03-13T00:05:09.581Z,4.16
2024-03-13T00:06:09.603Z,4.16
2024-03-13T00:07:09.566Z,4.16
2024-03-13T00:08:09.616Z,4.16
2024-03-13T00:09:09.544Z,4.16
2024-03-13T00:10:09.602Z,4.16
2024-03-13T00:11:09.627Z,4.15
2024-03-13T00:12:09.532Z,4.14
2024-03-13T00:13:09.578Z,4.14
2024-03-13T00:14:09.496Z,4.15
2024-03-13T00:15:09.464Z,4.18
2024-03-13T00:16:09.486Z,4.18
2024-03-13T00:17:09.501Z,4.19
2024-03-13T00:18:09.513Z,4.21
2024-03-13T00:19:09.538Z,4.19
2024-03-13T00:20:09.432Z,4.18
2024-03-13T00:21:09.418Z,4.19
2024-03-13T00:22:09.448Z,4.16
2024-03-13T00:23:09.381Z,4.15
2024-03-13T00:24:09.430Z,4.15
2024-03-13T00:25:09.582Z,4.15
2024-03-13T00:26:09.371Z,4.15
2024-03-13T00:27:09.338Z,4.16
2024-03-13T00:28:09.432Z,4.16
2024-03-13T00:29:09.363Z,4.16
2024-03-13T00:30:09.355Z,4.16
2024-03-13T00:31:09.561Z,4.16
2024-03-13T00:32:09.359Z,4.16
2024-03-13T00:33:09.370Z,4.15
2024-03-13T00:34:09.353Z,4.15
2024-03-13T00:35:09.294Z,4.15
2024-03-13T00:36:09.309Z,4.12
2024-03-13T00:37:09.403Z,4.08
2024-03-13T00:38:09.247Z,4.08
2024-03-13T00:39:09.227Z,4.10
2024-03-13T00:40:09.291Z,4.07
2024-03-13T00:41:09.203Z,4.07
2024-03-13T00:42:09.975Z,4.04
2024-03-13T00:43:09.200Z,4.06
2024-03-13T00:44:09.187Z,4.04
2024-03-13T00:45:09.196Z,4.01
2024-03-13T00:46:09.215Z,4.03
2024-03-13T00:47:09.141Z,4.03
2024-03-13T00:48:09.163Z,4.03
2024-03-13T00:49:11.091Z,4.01
2024-03-13T00:50:09.125Z,4.03
2024-03-13T00:51:09.204Z,4.01
2024-03-13T00:52:09.164Z,4.00
2024-03-13T00:53:09.080Z,4.00
2024-03-13T00:54:09.075Z,3.96
2024-03-13T00:55:09.151Z,3.98
2024-03-13T00:56:11.028Z,3.98
2024-03-13T00:57:09.804Z,3.98
2024-03-13T00:58:09.188Z,3.97
2024-03-13T00:59:09.048Z,3.98
2024-03-13T01:00:09.221Z,3.98
2024-03-13T01:01:09.029Z,3.97
2024-03-13T01:02:09.039Z,3.98
2024-03-13T01:03:11.759Z,4.00
2024-03-13T01:04:09.039Z,4.01
2024-03-13T01:05:09.068Z,4.00
2024-03-13T01:06:08.946Z,4.03
2024-03-13T01:07:09.089Z,4.03
2024-03-13T01:08:08.946Z,4.07
2024-03-13T01:09:08.917Z,4.08
2024-03-13T01:10:09.002Z,4.08
2024-03-13T01:11:08.918Z,4.12
2024-03-13T01:12:08.919Z,4.14
2024-03-13T01:13:09.628Z,4.10
2024-03-13T01:14:08.877Z,4.07
2024-03-13T01:15:09.131Z,4.10
2024-03-13T01:16:09.211Z,4.08
2024-03-13T01:17:08.831Z,4.06
2024-03-13T01:18:09.242Z,4.04
2024-03-13T01:19:08.957Z,4.01
2024-03-13T01:20:08.881Z,3.98
2024-03-13T01:21:08.741Z,3.98
2024-03-13T01:22:08.822Z,4.00
2024-03-13T01:23:08.741Z,3.98
2024-03-13T01:24:08.744Z,4.01
2024-03-13T01:25:10.772Z,4.01
2024-03-13T01:26:08.722Z,4.01
2024-03-13T01:27:08.711Z,4.03
2024-03-13T01:28:08.742Z,4.03
2024-03-13T01:29:09.158Z,4.04
2024-03-13T01:30:08.697Z,4.03
2024-03-13T01:31:09.541Z,4.00
2024-03-13T01:32:08.695Z,3.98
2024-03-13T01:33:08.647Z,3.96
2024-03-13T01:34:08.678Z,3.92
2024-03-13T01:35:08.633Z,3.90
2024-03-13T01:36:08.676Z,3.85
2024-03-13T01:37:08.632Z,3.86
2024-03-13T01:38:08.669Z,3.85
2024-03-13T01:39:08.583Z,3.83
2024-03-13T01:40:08.659Z,3.85
2024-03-13T01:41:08.572Z,3.85
2024-03-13T01:42:08.543Z,3.82
2024-03-13T01:43:08.591Z,3.80
2024-03-13T01:44:11.061Z,3.78
2024-03-13T01:45:08.626Z,3.72
2024-03-13T01:46:08.567Z,3.68
2024-03-13T01:47:08.527Z,3.67
2024-03-13T01:48:08.516Z,3.65
2024-03-13T01:49:08.504Z,3.62
2024-03-13T01:50:08.493Z,3.60
2024-03-13T01:51:08.457Z,3.58
2024-03-13T01:52:08.455Z,3.58
2024-03-13T01:53:08.505Z,3.57
2024-03-13T01:54:08.439Z,3.54
2024-03-13T01:55:09.248Z,3.53
2024-03-13T01:56:08.434Z,3.52
2024-03-13T01:57:08.399Z,3.52
2024-03-13T01:58:08.437Z,3.49
2024-03-13T01:59:08.366Z,3.49
2024-03-13T02:00:08.336Z,3.47
2024-03-13T02:01:08.411Z,3.47
2024-03-13T02:02:08.603Z,3.46
2024-03-13T02:03:08.327Z,3.44
2024-03-13T02:04:08.374Z,3.47
2024-03-13T02:05:10.262Z,3.46
2024-03-13T02:06:08.365Z,3.47
2024-03-13T02:07:08.348Z,3.47
2024-03-13T02:08:08.304Z,3.46
2024-03-13T02:09:08.257Z,3.49
2024-03-13T02:10:08.285Z,3.49
2024-03-13T02:11:08.385Z,3.52
2024-03-13T02:12:08.254Z,3.53
2024-03-13T02:13:08.301Z,3.57
2024-03-13T02:14:08.266Z,3.58
2024-03-13T02:15:08.404Z,3.61
2024-03-13T02:16:08.238Z,3.62
2024-03-13T02:17:08.205Z,3.61
2024-03-13T02:18:08.831Z,3.64
2024-03-13T02:19:08.184Z,3.62
2024-03-13T02:20:08.147Z,3.67
2024-03-13T02:21:08.155Z,3.68
2024-03-13T02:22:08.160Z,3.72
2024-03-13T02:23:08.104Z,3.75
2024-03-13T02:24:08.087Z,3.78
2024-03-13T02:25:08.892Z,3.76
2024-03-13T02:26:08.066Z,3.76
2024-03-13T02:27:08.065Z,3.78
2024-03-13T02:28:08.116Z,3.76
2024-03-13T02:29:08.062Z,3.75
2024-03-13T02:30:08.134Z,3.75
2024-03-13T02:31:08.344Z,3.75
2024-03-13T02:32:07.984Z,3.75
2024-03-13T02:33:08.098Z,3.75
2024-03-13T02:34:08.002Z,3.72
2024-03-13T02:35:08.038Z,3.70
2024-03-13T02:36:07.976Z,3.65
2024-03-13T02:37:08.049Z,3.65
2024-03-13T02:38:07.963Z,3.64
2024-03-13T02:39:08.097Z,3.62
2024-03-13T02:40:07.964Z,3.60
2024-03-13T02:41:07.911Z,3.60
2024-03-13T02:42:07.889Z,3.62
2024-03-13T02:43:08.253Z,3.62
2024-03-13T02:44:07.854Z,3.62
2024-03-13T02:45:08.009Z,3.64
2024-03-13T02:46:07.891Z,3.68
2024-03-13T02:47:07.881Z,3.70
2024-03-13T02:48:07.827Z,3.70
2024-03-13T02:49:07.889Z,3.72
2024-03-13T02:50:07.874Z,3.76
2024-03-13T02:51:07.875Z,3.79
2024-03-13T02:52:07.837Z,3.80
2024-03-13T02:53:07.816Z,3.85
2024-03-13T02:54:07.782Z,3.86
2024-03-13T02:55:07.814Z,3.89
2024-03-13T02:56:07.733Z,3.90
2024-03-13T02:57:07.771Z,3.92
2024-03-13T02:58:07.833Z,3.92
2024-03-13T02:59:07.766Z,3.89
2024-03-13T03:00:07.723Z,3.88
2024-03-13T03:01:07.861Z,3.85
2024-03-13T03:02:07.966Z,3.83
2024-03-13T03:03:07.692Z,3.79
2024-03-13T03:04:07.660Z,3.78
2024-03-13T03:05:09.745Z,3.72
2024-03-13T03:06:07.678Z,3.76
2024-03-13T03:07:07.792Z,3.75
2024-03-13T03:08:07.867Z,3.76
2024-03-13T03:09:07.637Z,3.72
2024-03-13T03:10:07.669Z,3.75
2024-03-13T03:11:07.638Z,3.78
2024-03-13T03:12:07.558Z,3.82
2024-03-13T03:13:07.648Z,3.83
2024-03-13T03:14:07.545Z,3.86
2024-03-13T03:15:07.646Z,3.89
2024-03-13T03:16:07.587Z,3.94
2024-03-13T03:17:07.619Z,3.97
2024-03-13T03:18:07.558Z,4.01
2024-03-13T03:19:07.636Z,4.04
2024-03-13T03:20:07.650Z,4.04
2024-03-13T03:21:07.515Z,4.08
2024-03-13T03:22:07.478Z,4.10
2024-03-13T03:23:07.481Z,4.15
2024-03-13T03:24:07.462Z,4.16
2024-03-13T03:25:09.455Z,4.18
2024-03-13T03:26:07.422Z,4.22
2024-03-13T03:27:07.494Z,4.25
2024-03-13T03:28:07.457Z,4.28
2024-03-13T03:29:07.424Z,4.32
2024-03-13T03:30:07.460Z,4.33
2024-03-13T03:31:07.426Z,4.36
2024-03-13T03:32:07.368Z,4.42
2024-03-13T03:33:07.419Z,4.42
2024-03-13T03:34:07.413Z,4.46
2024-03-13T03:35:09.325Z,4.50
2024-03-13T03:36:07.297Z,4.52
2024-03-13T03:37:07.380Z,4.54
2024-03-13T03:38:07.288Z,4.57
2024-03-13T03:39:07.317Z,4.58
2024-03-13T03:40:07.330Z,4.59
2024-03-13T03:41:07.295Z,4.62
2024-03-13T03:42:07.230Z,4.65
2024-03-13T03:43:07.524Z,4.69
2024-03-13T03:44:07.230Z,4.70
2024-03-13T03:45:07.313Z,4.72
2024-03-13T03:46:07.258Z,4.75
2024-03-13T03:47:07.232Z,4.79
2024-03-13T03:48:11.771Z,4.83
2024-03-13T03:49:08.289Z,4.84
2024-03-13T03:50:07.186Z,4.89
2024-03-13T03:51:10.873Z,4.89
2024-03-13T03:52:07.163Z,4.92
2024-03-13T03:53:07.343Z,4.94
2024-03-13T03:54:07.132Z,4.95
2024-03-13T03:55:07.271Z,4.98
2024-03-13T03:56:07.119Z,4.98
2024-03-13T03:57:07.187Z,4.99
2024-03-13T03:58:07.177Z,5.02
2024-03-13T03:59:07.083Z,5.02
2024-03-13T04:00:07.124Z,5.04
2024-03-13T04:01:07.106Z,5.07
2024-03-13T04:02:07.182Z,5.07
2024-03-13T04:03:07.285Z,5.10
2024-03-13T04:04:07.072Z,5.09
2024-03-13T04:05:08.985Z,5.13
2024-03-13T04:06:07.378Z,5.13
2024-03-13T04:07:07.106Z,5.16
2024-03-13T04:08:07.428Z,5.17
2024-03-13T04:09:06.995Z,5.17
2024-03-13T04:10:07.002Z,5.20
2024-03-13T04:11:07.086Z,5.20
2024-03-13T04:12:06.928Z,5.23
2024-03-13T04:13:06.982Z,5.23
2024-03-13T04:14:06.892Z,5.25
2024-03-13T04:15:08.901Z,5.28
2024-03-13T04:16:06.920Z,5.30
2024-03-13T04:17:06.897Z,5.28
2024-03-13T04:18:06.878Z,5.31
2024-03-13T04:19:06.906Z,5.31
2024-03-13T04:20:06.942Z,5.31
2024-03-13T04:21:06.844Z,5.34
2024-03-13T04:22:06.876Z,5.34
2024-03-13T04:23:07.062Z,5.34
2024-03-13T04:24:06.895Z,5.37
2024-03-13T04:25:06.892Z,5.40
2024-03-13T04:26:06.926Z,5.41
2024-03-13T04:27:06.787Z,5.41
2024-03-13T04:28:06.792Z,5.41
2024-03-13T04:29:06.754Z,5.43
2024-03-13T04:30:06.786Z,5.48
2024-03-13T04:31:06.788Z,5.48
2024-03-13T04:32:06.695Z,5.50
2024-03-13T04:33:06.770Z,5.49
2024-03-13T04:34:10.462Z,5.49
2024-03-13T04:35:08.694Z,5.52
2024-03-13T04:36:06.651Z,5.53
2024-03-13T04:37:06.710Z,5.55
2024-03-13T04:38:06.652Z,5.55
2024-03-13T04:39:06.638Z,5.56
2024-03-13T04:40:06.740Z,5.56
2024-03-13T04:41:06.633Z,5.57
2024-03-13T04:42:06.644Z,5.57
2024-03-13T04:43:06.729Z,5.57
2024-03-13T04:44:06.568Z,5.57
2024-03-13T04:45:06.746Z,5.57
2024-03-13T04:46:06.849Z,5.56
2024-03-13T04:47:06.661Z,5.59
2024-03-13T04:48:06.646Z,5.57
2024-03-13T04:49:06.585Z,5.60
2024-03-13T04:50:06.542Z,5.60
2024-03-13T04:51:06.552Z,5.63
2024-03-13T04:52:06.570Z,5.63
2024-03-13T04:53:06.665Z,5.64
2024-03-13T04:54:06.499Z,5.64
2024-03-13T04:55:08.557Z,5.63
2024-03-13T04:56:06.454Z,5.63
2024-03-13T04:57:06.462Z,5.64
2024-03-13T04:58:06.565Z,5.63
2024-03-13T04:59:06.419Z,5.63
2024-03-13T05:00:06.393Z,5.63
2024-03-13T05:01:06.569Z,5.67
2024-03-13T05:02:07.356Z,5.67
2024-03-13T05:03:06.447Z,5.68
2024-03-13T05:04:06.393Z,5.68
2024-03-13T05:05:06.501Z,5.68
2024-03-13T05:06:06.371Z,5.70
2024-03-13T05:07:06.387Z,5.68
2024-03-13T05:08:09.498Z,5.70
2024-03-13T05:09:06.334Z,5.67
2024-03-13T05:10:06.315Z,5.70
2024-03-13T05:11:07.860Z,5.67
2024-03-13T05:12:06.297Z,5.70
2024-03-13T05:13:06.320Z,5.70
2024-03-13T05:14:06.266Z,5.70
2024-03-13T05:15:08.261Z,5.70
2024-03-13T05:16:06.260Z,5.71
2024-03-13T05:17:06.258Z,5.73
2024-03-13T05:18:06.264Z,5.73
2024-03-13T05:19:06.260Z,5.75
2024-03-13T05:20:06.207Z,5.74
2024-03-13T05:21:06.197Z,5.77
2024-03-13T05:22:06.344Z,5.77
2024-03-13T05:23:06.183Z,5.78
2024-03-13T05:24:06.142Z,5.77
2024-03-13T05:25:06.568Z,5.77
2024-03-13T05:26:06.125Z,5.81
2024-03-13T05:27:06.162Z,5.81
2024-03-13T05:28:08.153Z,5.82
2024-03-13T05:29:08.079Z,5.83
2024-03-13T05:30:06.106Z,5.83
2024-03-13T05:31:06.246Z,5.86
2024-03-13T05:32:08.087Z,5.86
2024-03-13T05:33:06.126Z,5.88
2024-03-13T05:34:06.521Z,5.88
2024-03-13T05:35:06.220Z,5.86
2024-03-13T05:36:06.072Z,5.89
2024-03-13T05:37:06.165Z,5.89
2024-03-13T05:38:06.018Z,5.89
2024-03-13T05:39:06.080Z,5.91
2024-03-13T05:40:06.094Z,5.91
2024-03-13T05:41:05.968Z,5.92
2024-03-13T05:42:05.997Z,5.92
2024-03-13T05:43:06.158Z,5.93
2024-03-13T05:44:05.949Z,5.93
2024-03-13T05:45:07.933Z,5.95
2024-03-13T05:46:06.018Z,5.96
2024-03-13T05:47:06.015Z,5.96
2024-03-13T05:48:05.984Z,5.95
2024-03-13T05:49:06.097Z,5.98
2024-03-13T05:50:05.954Z,5.98
2024-03-13T05:51:05.904Z,6.00
2024-03-13T05:52:06.015Z,6.00
2024-03-13T05:53:05.914Z,6.01
2024-03-13T05:54:05.961Z,6.03
2024-03-13T05:55:06.082Z,6.04
2024-03-13T05:56:05.904Z,6.04
2024-03-13T05:57:05.914Z,6.07
2024-03-13T05:58:05.893Z,6.09
2024-03-13T05:59:05.795Z,6.10
2024-03-13T06:00:05.933Z,6.10
2024-03-13T06:01:06.201Z,6.11
2024-03-13T06:02:07.842Z,6.14
2024-03-13T06:03:05.746Z,6.13
2024-03-13T06:04:06.129Z,6.14
2024-03-13T06:05:05.823Z,6.16
2024-03-13T06:06:05.715Z,6.18
2024-03-13T06:07:05.716Z,6.19
2024-03-13T06:08:05.715Z,6.19
2024-03-13T06:09:05.684Z,6.22
2024-03-13T06:10:05.761Z,6.22
2024-03-13T06:11:05.669Z,6.22
2024-03-13T06:12:05.653Z,6.25
2024-03-13T06:13:05.688Z,6.26
2024-03-13T06:14:05.998Z,6.28
2024-03-13T06:15:05.617Z,6.29
2024-03-13T06:16:05.650Z,6.30
2024-03-13T06:17:06.056Z,6.32
2024-03-13T06:18:05.639Z,6.32
2024-03-13T06:19:05.596Z,6.35
2024-03-13T06:20:05.761Z,6.35
2024-03-13T06:21:05.592Z,6.36
2024-03-13T06:22:05.581Z,6.38
2024-03-13T06:23:05.511Z,6.40
2024-03-13T06:24:05.535Z,6.43
2024-03-13T06:25:05.538Z,6.44
2024-03-13T06:26:05.552Z,6.47
2024-03-13T06:27:05.464Z,6.50
2024-03-13T06:28:05.505Z,6.51
2024-03-13T06:29:05.461Z,6.54
2024-03-13T06:30:05.497Z,6.54
2024-03-13T06:31:05.524Z,6.58
2024-03-13T06:32:05.441Z,6.61
2024-03-13T06:33:05.470Z,6.68
2024-03-13T06:34:05.484Z,6.69
2024-03-13T06:35:05.398Z,6.73
2024-03-13T06:36:05.449Z,6.76
2024-03-13T06:37:05.494Z,6.77
2024-03-13T06:38:05.400Z,6.77
2024-03-13T06:39:05.353Z,6.80
2024-03-13T06:40:05.797Z,6.81
2024-03-13T06:41:05.508Z,6.83
2024-03-13T06:42:05.452Z,6.83
2024-03-13T06:43:05.447Z,6.84
2024-03-13T06:44:05.318Z,6.84
2024-03-13T06:45:05.452Z,6.86
2024-03-13T06:46:05.409Z,6.89
2024-03-13T06:47:05.252Z,6.90
2024-03-13T06:48:05.314Z,6.94
2024-03-13T06:49:05.276Z,6.98
2024-03-13T06:50:05.249Z,7.02
2024-03-13T06:51:05.227Z,7.05
2024-03-13T06:52:05.276Z,7.12
2024-03-13T06:53:05.192Z,7.17
2024-03-13T06:54:07.144Z,7.23
2024-03-13T06:55:07.155Z,7.29
2024-03-13T06:56:05.204Z,7.35
2024-03-13T06:57:05.137Z,7.40
2024-03-13T06:58:05.189Z,7.42
2024-03-13T06:59:05.132Z,7.44
2024-03-13T07:00:05.131Z,7.44
2024-03-13T07:01:05.301Z,7.42
2024-03-13T07:02:05.305Z,7.44
2024-03-13T07:03:05.119Z,7.41
2024-03-13T07:04:05.116Z,7.42
2024-03-13T07:05:05.068Z,7.44
2024-03-13T07:06:05.102Z,7.42
2024-03-13T07:07:05.186Z,7.42
2024-03-13T07:08:05.090Z,7.42
2024-03-13T07:09:05.020Z,7.42
2024-03-13T07:10:05.041Z,7.41
2024-03-13T07:11:05.004Z,7.40
2024-03-13T07:12:05.035Z,7.40
2024-03-13T07:13:05.076Z,7.40
2024-03-13T07:14:04.977Z,7.38
2024-03-13T07:15:04.982Z,7.37
2024-03-13T07:16:05.029Z,7.37
2024-03-13T07:17:06.616Z,7.40
2024-03-13T07:18:05.040Z,7.38
2024-03-13T07:19:04.950Z,7.41
2024-03-13T07:20:04.915Z,7.42
2024-03-13T07:21:04.883Z,7.45
2024-03-13T07:22:05.020Z,7.47
2024-03-13T07:23:04.899Z,7.50
2024-03-13T07:24:04.883Z,7.55
2024-03-13T07:25:04.897Z,7.56
2024-03-13T07:26:04.878Z,7.58
2024-03-13T07:27:04.820Z,7.62
2024-03-13T07:28:04.852Z,7.63
2024-03-13T07:29:04.846Z,7.67
2024-03-13T07:30:04.809Z,7.74
2024-03-13T07:31:04.807Z,7.75
2024-03-13T07:32:04.940Z,7.81
2024-03-13T07:33:04.810Z,7.82
2024-03-13T07:34:04.796Z,7.84
2024-03-13T07:35:04.725Z,7.84
2024-03-13T07:36:04.808Z,7.81
2024-03-13T07:37:04.759Z,7.81
2024-03-13T07:38:04.715Z,7.79
2024-03-13T07:39:04.688Z,7.81
2024-03-13T07:40:04.738Z,7.81
2024-03-13T07:41:04.733Z,7.82
2024-03-13T07:42:04.696Z,7.82
2024-03-13T07:43:04.706Z,7.85
2024-03-13T07:44:04.970Z,7.85
2024-03-13T07:45:04.629Z,7.84
2024-03-13T07:46:04.643Z,7.84
2024-03-13T07:47:04.657Z,7.85
2024-03-13T07:48:06.642Z,7.87
2024-03-13T07:49:04.725Z,7.87
2024-03-13T07:50:04.609Z,7.90
2024-03-13T07:51:04.577Z,7.90
2024-03-13T07:52:04.707Z,7.90
2024-03-13T07:53:04.561Z,7.92
2024-03-13T07:54:04.599Z,7.92
2024-03-13T07:55:04.600Z,7.93
2024-03-13T07:56:04.579Z,7.93
2024-03-13T07:57:04.501Z,7.94
2024-03-13T07:58:04.635Z,7.97
2024-03-13T07:59:04.976Z,7.99
2024-03-13T08:00:04.486Z,8.00
2024-03-13T08:01:04.533Z,8.02
2024-03-13T08:02:04.586Z,8.04
2024-03-13T08:03:04.487Z,8.04
2024-03-13T08:04:04.474Z,8.08
2024-03-13T08:05:04.450Z,8.08
2024-03-13T09:05:57.421Z,9.18
2024-03-13T09:06:53.933Z,9.18
2024-03-13T09:07:53.903Z,9.21
2024-03-13T09:08:53.964Z,9.21
2024-03-13T09:09:53.870Z,9.21
2024-03-13T09:10:53.948Z,9.21
2024-03-13T09:11:53.873Z,9.24
2024-03-13T09:12:53.833Z,9.24
2024-03-13T09:13:54.146Z,9.24
2024-03-13T09:14:53.891Z,9.23
2024-03-13T09:15:53.809Z,9.23
2024-03-13T09:16:53.883Z,9.24
2024-03-13T09:17:53.968Z,9.24
2024-03-13T09:18:54.164Z,9.23
2024-03-13T09:19:53.832Z,9.24
2024-03-13T09:20:54.231Z,9.24
2024-03-13T09:21:53.775Z,9.25
2024-03-13T09:22:53.960Z,9.28
2024-03-13T09:23:53.759Z,9.28
2024-03-13T09:24:53.714Z,9.28
2024-03-13T09:25:53.748Z,9.31
2024-03-13T09:26:55.742Z,9.30
2024-03-13T09:27:53.731Z,9.28
2024-03-13T09:28:55.697Z,9.31
2024-03-13T09:29:53.743Z,9.31
2024-03-13T09:30:53.635Z,9.31
2024-03-13T09:31:53.690Z,9.32
2024-03-13T09:32:54.422Z,9.32
2024-03-13T09:33:55.718Z,9.34
2024-03-13T09:34:53.672Z,9.35
2024-03-13T09:35:53.619Z,9.35
2024-03-13T09:36:53.784Z,9.39
2024-03-13T09:37:53.771Z,9.38
2024-03-13T09:38:53.771Z,9.35
2024-03-13T09:39:53.710Z,9.35
2024-03-13T09:40:54.362Z,9.35
2024-03-13T09:41:53.590Z,9.38
2024-03-13T09:42:54.333Z,9.40
2024-03-13T09:43:53.531Z,9.42
2024-03-13T09:44:53.568Z,9.45
2024-03-13T09:45:53.522Z,9.45
2024-03-13T09:46:57.285Z,9.46
2024-03-13T09:47:53.595Z,9.49
2024-03-13T09:48:53.523Z,9.50
2024-03-13T09:49:53.513Z,9.53
2024-03-13T09:50:54.911Z,9.53
2024-03-13T09:51:55.516Z,9.56
2024-03-13T09:52:55.467Z,9.60
2024-03-13T09:53:55.473Z,9.60
2024-03-13T09:54:53.397Z,9.61
2024-03-13T09:55:53.384Z,9.61
2024-03-13T09:56:55.364Z,9.63
2024-03-13T09:57:53.520Z,9.63
2024-03-13T09:58:55.721Z,9.61
2024-03-13T09:59:53.632Z,9.61
2024-03-13T10:00:53.644Z,9.63
2024-03-13T10:01:53.483Z,9.64
2024-03-13T10:02:53.480Z,9.66
2024-03-13T10:03:56.339Z,9.66
2024-03-13T10:04:53.267Z,9.67
2024-03-13T10:05:53.556Z,9.68
2024-03-13T10:06:53.270Z,9.71
2024-03-13T10:07:53.320Z,9.73
2024-03-13T10:08:53.300Z,9.75
2024-03-13T10:09:53.252Z,9.78
2024-03-13T10:10:53.273Z,9.78
2024-03-13T10:11:53.564Z,9.79
2024-03-13T10:12:53.314Z,9.79
2024-03-13T10:13:53.308Z,9.81
2024-03-13T10:14:53.272Z,9.79
2024-03-13T10:15:53.187Z,9.78
2024-03-13T10:16:58.065Z,9.79
2024-03-13T10:17:54.255Z,9.79
2024-03-13T10:18:53.382Z,9.78
2024-03-13T10:19:53.135Z,9.79
2024-03-13T10:20:53.126Z,9.82
2024-03-13T10:21:53.247Z,9.82
2024-03-13T10:22:53.069Z,9.83
2024-03-13T10:23:53.179Z,9.83
2024-03-13T10:24:53.448Z,9.85
2024-03-13T10:25:53.038Z,9.82
2024-03-13T10:26:53.043Z,9.85
2024-03-13T10:27:53.029Z,9.85
2024-03-13T10:28:53.031Z,9.85
2024-03-13T10:29:53.037Z,9.86
2024-03-13T10:30:53.016Z,9.88
2024-03-13T10:31:53.260Z,9.88
2024-03-13T10:32:53.043Z,9.88
2024-03-13T10:33:53.135Z,9.91
2024-03-13T10:34:53.005Z,9.93
2024-03-13T10:35:53.164Z,9.94
2024-03-13T10:37:01.230Z,9.96
2024-03-13T10:37:53.917Z,9.99
2024-03-13T10:38:52.953Z,10.01
2024-03-13T10:39:52.941Z,10.03
2024-03-13T10:40:52.871Z,10.04
2024-03-13T10:41:53.134Z,10.04
2024-03-13T10:42:53.121Z,10.07
2024-03-13T10:43:52.909Z,10.10
2024-03-13T10:44:52.870Z,10.12
2024-03-13T10:45:52.822Z,10.15
2024-03-13T10:46:52.783Z,10.14
2024-03-13T10:47:52.973Z,10.15
2024-03-13T10:48:52.990Z,10.17
2024-03-13T10:49:52.838Z,10.18
2024-03-13T10:50:52.834Z,10.18
2024-03-13T10:51:52.777Z,10.18
2024-03-13T10:52:52.744Z,10.19
2024-03-13T10:53:52.805Z,10.19
2024-03-13T10:54:52.762Z,10.19
2024-03-13T10:55:52.726Z,10.21
2024-03-13T10:56:52.871Z,10.22
2024-03-13T10:57:52.688Z,10.24
2024-03-13T10:58:53.075Z,10.26
2024-03-13T10:59:52.735Z,10.28
2024-03-13T11:00:52.720Z,10.28
2024-03-13T11:01:52.641Z,10.32
2024-03-13T11:02:52.705Z,10.30
2024-03-13T11:03:52.650Z,10.30
2024-03-13T11:04:52.642Z,10.32
2024-03-13T11:05:52.677Z,10.30
2024-03-13T11:06:52.569Z,10.36
2024-03-13T11:07:53.303Z,10.36
2024-03-13T11:08:52.763Z,10.39
2024-03-13T11:09:53.106Z,10.40
2024-03-13T11:11:06.199Z,10.42
2024-03-13T11:11:53.812Z,10.46
2024-03-13T11:12:52.852Z,10.47
2024-03-13T11:13:52.670Z,10.52
2024-03-13T11:14:52.619Z,10.55
2024-03-13T11:15:52.495Z,10.53
2024-03-13T11:16:52.496Z,10.55
2024-03-13T11:17:52.763Z,10.55
2024-03-13T11:18:52.627Z,10.56
2024-03-13T11:19:52.576Z,10.56
2024-03-13T11:20:52.490Z,10.52
2024-03-13T11:21:52.621Z,10.53
2024-03-13T11:22:52.425Z,10.55
2024-03-13T11:23:52.430Z,10.55
2024-03-13T11:24:52.603Z,10.55
2024-03-13T11:25:52.475Z,10.55
2024-03-13T11:26:52.465Z,10.55
2024-03-13T11:27:52.483Z,10.58
2024-03-13T11:28:52.337Z,10.59
2024-03-13T11:29:52.686Z,10.62
2024-03-13T11:30:52.310Z,10.63
2024-03-13T11:31:52.618Z,10.65
2024-03-13T11:32:52.302Z,10.70
2024-03-13T11:33:52.459Z,10.73
2024-03-13T11:34:52.291Z,10.76
2024-03-13T11:35:52.302Z,10.77
2024-03-13T11:36:52.298Z,10.80
2024-03-13T11:37:52.262Z,10.81
2024-03-13T11:38:52.258Z,10.81
2024-03-13T11:39:52.232Z,10.84
2024-03-13T11:40:52.238Z,10.86
2024-03-13T11:41:52.292Z,10.88
2024-03-13T11:42:52.185Z,10.88
2024-03-13T11:43:52.194Z,10.88
2024-03-13T11:44:52.211Z,10.86
2024-03-13T11:45:52.248Z,10.86
2024-03-13T11:46:52.203Z,10.88
2024-03-13T11:47:52.294Z,10.88
2024-03-13T11:48:52.272Z,10.89
2024-03-13T11:49:52.120Z,10.86
2024-03-13T11:50:52.090Z,10.84
2024-03-13T11:51:52.128Z,10.81
2024-03-13T11:52:52.200Z,10.81
2024-03-13T11:53:52.761Z,10.83
2024-03-13T11:54:52.025Z,10.84
2024-03-13T11:55:52.061Z,10.84
2024-03-13T11:56:52.109Z,10.84
2024-03-13T11:57:52.093Z,10.86
2024-03-13T11:58:52.308Z,10.84
2024-03-13T11:59:52.132Z,10.80
2024-03-13T12:00:51.984Z,10.78
2024-03-13T12:01:52.019Z,10.80
2024-03-13T12:02:51.974Z,10.73
2024-03-13T12:03:51.945Z,10.77
2024-03-13T12:04:52.136Z,10.74
2024-03-13T12:05:51.984Z,10.78
2024-03-13T12:06:51.924Z,10.77
2024-03-13T12:07:51.929Z,10.76
2024-03-13T12:08:51.949Z,10.77
2024-03-13T12:09:52.670Z,10.73
2024-03-13T12:10:51.891Z,10.73
2024-03-13T12:11:52.134Z,10.74
2024-03-13T12:12:52.300Z,10.74
2024-03-13T12:13:51.831Z,10.76
2024-03-13T12:14:51.894Z,10.77
2024-03-13T12:15:51.806Z,10.78
2024-03-13T12:16:51.818Z,10.78
2024-03-13T12:17:52.550Z,10.78
2024-03-13T12:18:51.867Z,10.83
2024-03-13T12:19:51.796Z,10.83
2024-03-13T12:20:51.790Z,10.83
2024-03-13T12:21:51.786Z,10.84
2024-03-13T12:22:51.954Z,10.84
2024-03-13T12:23:51.794Z,10.84
2024-03-13T12:24:51.739Z,10.83
2024-03-13T12:25:51.729Z,10.86
2024-03-13T12:26:51.698Z,10.84
2024-03-13T12:27:52.157Z,10.83
2024-03-13T12:28:51.648Z,10.81
2024-03-13T12:29:51.803Z,10.81
2024-03-13T12:30:51.663Z,10.81
2024-03-13T12:31:51.630Z,10.81
2024-03-13T12:32:51.805Z,10.78
2024-03-13T12:33:51.747Z,10.78
2024-03-13T12:34:51.587Z,10.77
2024-03-13T12:35:51.594Z,10.76
2024-03-13T12:36:51.578Z,10.77
2024-03-13T12:37:52.293Z,10.76
2024-03-13T12:38:51.783Z,10.73
2024-03-13T12:39:51.781Z,10.73
2024-03-13T12:40:51.527Z,10.70
2024-03-13T12:41:51.602Z,10.70
2024-03-13T12:42:51.503Z,10.70
2024-03-13T12:43:51.539Z,10.70
2024-03-13T12:44:51.552Z,10.73
2024-03-13T12:45:51.510Z,10.73
2024-03-13T12:46:51.440Z,10.74
2024-03-13T12:47:51.750Z,10.71
2024-03-13T12:48:51.584Z,10.73
2024-03-13T12:49:51.467Z,10.74
2024-03-13T12:50:51.452Z,10.76
2024-03-13T12:51:51.486Z,10.77
2024-03-13T12:52:51.379Z,10.78
2024-03-13T12:53:51.461Z,10.78
2024-03-13T12:54:51.373Z,10.80
2024-03-13T12:55:51.439Z,10.80
2024-03-13T12:56:51.361Z,10.80
2024-03-13T12:57:51.348Z,10.81
2024-03-13T12:58:51.317Z,10.83
2024-03-13T12:59:51.396Z,10.86
2024-03-13T13:00:51.307Z,10.89
2024-03-13T13:01:51.372Z,10.94
2024-03-13T13:02:51.620Z,10.96
2024-03-13T13:03:51.274Z,11.02
2024-03-13T13:04:51.270Z,11.03
2024-03-13T13:05:51.309Z,11.10
2024-03-13T13:06:51.227Z,11.13
2024-03-13T13:07:52.212Z,11.16
2024-03-13T13:08:51.580Z,11.16
2024-03-13T13:09:51.267Z,11.19
2024-03-13T13:10:51.215Z,11.20
2024-03-13T13:11:51.468Z,11.19
2024-03-13T13:12:51.187Z,11.19
2024-03-13T13:13:51.189Z,11.21
2024-03-13T13:14:51.213Z,11.19
2024-03-13T13:15:51.156Z,11.20
2024-03-13T13:16:51.139Z,11.20
2024-03-13T13:17:51.564Z,11.20
2024-03-13T13:18:51.444Z,11.19
2024-03-13T13:19:51.150Z,11.19
2024-03-13T13:20:51.124Z,11.19
2024-03-13T13:21:51.099Z,11.20
2024-03-13T13:22:51.349Z,11.21
2024-03-13T13:23:51.061Z,11.20
2024-03-13T13:24:51.028Z,11.20
2024-03-13T13:25:51.300Z,11.21
2024-03-13T13:26:52.984Z,11.24
2024-03-13T13:27:53.012Z,11.25
2024-03-13T13:28:50.967Z,11.27
2024-03-13T13:29:53.032Z,11.28
2024-03-13T13:30:50.962Z,11.27
2024-03-13T13:31:50.980Z,11.28
2024-03-13T13:32:50.992Z,11.27
2024-03-13T13:33:51.245Z,11.27
2024-03-13T13:34:50.917Z,11.27
2024-03-13T13:35:51.407Z,11.25
2024-03-13T13:36:50.926Z,11.27
2024-03-13T13:37:50.935Z,11.27
2024-03-13T13:38:50.913Z,11.25
2024-03-13T13:39:50.920Z,11.25
2024-03-13T13:40:50.916Z,11.25
2024-03-13T13:41:50.858Z,11.25
2024-03-13T13:42:50.834Z,11.24
2024-03-13T13:43:50.810Z,11.25
2024-03-13T13:44:50.846Z,11.25
2024-03-13T13:45:50.810Z,11.28
2024-03-13T13:46:52.787Z,11.28
2024-03-13T13:47:50.808Z,11.28
2024-03-13T13:48:50.823Z,11.32
2024-03-13T13:49:50.767Z,11.32
2024-03-13T13:50:51.043Z,11.31
2024-03-13T13:51:50.710Z,11.32
2024-03-13T13:52:50.772Z,11.32
2024-03-13T13:53:50.721Z,11.35
2024-03-13T13:54:50.716Z,11.34
2024-03-13T13:55:50.681Z,11.36
2024-03-13T13:56:50.713Z,11.36
2024-03-13T13:57:52.991Z,11.39
2024-03-13T13:58:50.676Z,11.39
2024-03-13T13:59:50.647Z,11.41
2024-03-13T14:00:50.660Z,11.41
2024-03-13T14:01:50.866Z,11.41
2024-03-13T14:02:50.670Z,11.41
2024-03-13T14:03:52.318Z,11.43
2024-03-13T14:04:50.602Z,11.43
2024-03-13T14:05:50.617Z,11.43
2024-03-13T14:06:50.622Z,11.46
2024-03-13T14:07:50.537Z,11.47
2024-03-13T14:08:50.631Z,11.47
2024-03-13T14:09:50.509Z,11.50
2024-03-13T14:10:50.598Z,11.52